createdAt,value
2022-12-27T00:02:22.181Z,101547.13
2022-12-27T00:04:50.210Z,101546.19
2022-12-27T00:07:18.422Z,101546.19
2022-12-27T00:09:47.700Z,101550.53
2022-12-27T00:12:15.414Z,101557.59
2022-12-27T00:14:43.380Z,101550.41
2022-12-27T00:17:11.089Z,101558.97
2022-12-27T00:19:38.848Z,101546.94
2022-12-27T00:22:06.548Z,101563.63
2022-12-27T00:24:35.288Z,101559.50
2022-12-27T00:27:04.461Z,101560.47
2022-12-27T00:29:32.185Z,101568.19
2022-12-27T00:32:00.016Z,101565.53
2022-12-27T00:34:27.795Z,101558.66
2022-12-27T00:36:55.553Z,101565.84
2022-12-27T00:39:23.294Z,101566.50
2022-12-27T00:41:51.092Z,101572.28
2022-12-27T00:44:20.341Z,101573.88
2022-12-27T00:46:48.072Z,101572.41
2022-12-27T00:49:15.753Z,101570.72
2022-12-27T00:51:43.457Z,101580.44
2022-12-27T00:54:11.174Z,101579.41
2022-12-27T00:56:38.886Z,101576.63
2022-12-27T00:59:06.826Z,101582.03
2022-12-27T01:01:37.279Z,101576.84
2022-12-27T01:04:05.345Z,101574.41
2022-12-27T01:06:34.766Z,101567.34
2022-12-27T01:09:03.330Z,101582.16
2022-12-27T01:11:31.721Z,101596.31
2022-12-27T01:14:01.337Z,101598.00
2022-12-27T01:16:31.446Z,101599.81
2022-12-27T01:19:01.727Z,101604.34
2022-12-27T01:21:30.847Z,101602.75
2022-12-27T01:23:59.437Z,101610.91
2022-12-27T01:26:27.462Z,101603.84
2022-12-27T01:28:55.529Z,101602.84
2022-12-27T01:31:27.681Z,101605.50
2022-12-27T01:33:57.020Z,101606.34
2022-12-27T01:36:27.780Z,101608.88
2022-12-27T01:38:55.868Z,101606.78
2022-12-27T01:41:44.058Z,101614.09
2022-12-27T01:44:50.049Z,101621.28
2022-12-27T01:47:33.472Z,101618.19
2022-12-27T01:50:10.551Z,101630.88
2022-12-27T01:52:42.262Z,101643.22
2022-12-27T01:55:18.625Z,101639.75
2022-12-27T01:57:47.623Z,101634.69
2022-12-27T02:00:16.158Z,101631.59
2022-12-27T02:02:44.307Z,101632.44
2022-12-27T02:05:15.858Z,101638.91
2022-12-27T02:07:57.039Z,101641.53
2022-12-27T02:10:25.463Z,101637.09
2022-12-27T02:12:53.415Z,101649.47
2022-12-27T02:15:21.107Z,101640.91
2022-12-27T02:17:48.858Z,101638.69
2022-12-27T02:20:19.558Z,101642.16
2022-12-27T02:23:39.820Z,101640.03
2022-12-27T02:26:34.928Z,101636.56
2022-12-27T02:29:20.080Z,101646.28
2022-12-27T02:31:54.844Z,101645.13
2022-12-27T02:34:27.202Z,101641.94
2022-12-27T02:37:01.128Z,101650.00
2022-12-27T02:39:31.950Z,101652.72
2022-12-27T02:42:18.059Z,101646.81
2022-12-27T02:45:05.805Z,101660.97
2022-12-27T02:47:52.329Z,101659.69
2022-12-27T02:50:37.635Z,101652.16
2022-12-27T02:53:15.463Z,101645.00
2022-12-27T02:56:26.169Z,101649.31
2022-12-27T02:59:07.742Z,101642.13
2022-12-27T03:02:03.808Z,101642.34
2022-12-27T03:04:47.970Z,101649.44
2022-12-27T03:07:28.169Z,101644.25
2022-12-27T03:10:26.479Z,101649.81
2022-12-27T03:13:19.411Z,101650.91
2022-12-27T03:16:02.133Z,101644.88
2022-12-27T03:18:43.436Z,101653.72
2022-12-27T03:21:31.538Z,101650.16
2022-12-27T03:24:18.084Z,101652.97
2022-12-27T03:26:48.413Z,101655.53
2022-12-27T03:29:37.862Z,101658.44
2022-12-27T03:32:28.779Z,101657.91
2022-12-27T03:35:06.443Z,101663.09
2022-12-27T03:37:55.123Z,101657.72
2022-12-27T03:40:34.593Z,101649.47
2022-12-27T03:43:12.707Z,101644.44
2022-12-27T03:46:16.830Z,101644.91
2022-12-27T03:49:03.823Z,101649.34
2022-12-27T03:51:38.349Z,101650.69
2022-12-27T03:54:10.205Z,101651.53
2022-12-27T03:56:39.566Z,101648.38
2022-12-27T03:59:08.145Z,101650.25
2022-12-27T04:01:35.854Z,101648.31
2022-12-27T04:04:03.681Z,101661.41
2022-12-27T04:06:32.712Z,101654.25
2022-12-27T04:09:18.257Z,101664.72
2022-12-27T04:12:03.604Z,101660.56
2022-12-27T04:14:49.079Z,101667.22
2022-12-27T04:17:34.384Z,101669.31
2022-12-27T04:20:19.862Z,101683.28
2022-12-27T04:23:06.535Z,101670.59
2022-12-27T04:25:52.045Z,101667.81
2022-12-27T04:28:37.559Z,101660.47
2022-12-27T04:31:22.642Z,101671.13
2022-12-27T04:34:07.727Z,101668.38
2022-12-27T04:36:35.448Z,101658.69
2022-12-27T04:39:05.013Z,101658.28
2022-12-27T04:41:59.550Z,101656.41
2022-12-27T04:44:44.964Z,101665.56
2022-12-27T04:47:33.268Z,101671.81
2022-12-27T04:50:18.626Z,101667.94
2022-12-27T04:53:04.183Z,101674.31
2022-12-27T04:55:33.216Z,101666.41
2022-12-27T04:58:01.054Z,101663.31
2022-12-27T05:00:48.977Z,101664.72
2022-12-27T05:03:20.660Z,101670.38
2022-12-27T05:05:51.060Z,101666.53
2022-12-27T05:08:37.767Z,101666.13
2022-12-27T05:11:39.274Z,101667.84
2022-12-27T05:14:10.152Z,101672.81
2022-12-27T05:16:40.378Z,101687.88
2022-12-27T05:19:10.253Z,101689.38
2022-12-27T05:21:38.459Z,101690.41
2022-12-27T05:24:24.679Z,101696.44
2022-12-27T05:26:56.896Z,101686.56
2022-12-27T05:29:24.857Z,101697.84
2022-12-27T05:31:52.569Z,101691.09
2022-12-27T05:34:20.349Z,101698.69
2022-12-27T05:36:48.104Z,101702.09
2022-12-27T05:39:15.773Z,101709.53
2022-12-27T05:41:43.439Z,101697.94
2022-12-27T05:44:12.563Z,101696.63
2022-12-27T05:46:40.434Z,101700.50
2022-12-27T05:49:08.106Z,101698.63
2022-12-27T05:51:35.803Z,101697.28
2022-12-27T05:54:03.495Z,101708.59
2022-12-27T05:56:31.171Z,101704.28
2022-12-27T05:58:58.968Z,101713.22
2022-12-27T06:01:28.120Z,101714.81
2022-12-27T06:03:55.924Z,101716.78
2022-12-27T06:06:23.732Z,101722.72
2022-12-27T06:08:51.413Z,101728.56
2022-12-27T06:11:20.989Z,101728.47
2022-12-27T06:13:51.569Z,101728.19
2022-12-27T06:16:21.163Z,101728.94
2022-12-27T06:18:50.818Z,101733.19
2022-12-27T06:21:20.877Z,101736.13
2022-12-27T06:23:49.594Z,101733.47
2022-12-27T06:26:19.524Z,101741.19
2022-12-27T06:28:47.253Z,101743.91
2022-12-27T06:31:14.942Z,101741.00
2022-12-27T06:33:42.721Z,101745.25
2022-12-27T06:36:13.976Z,101743.34
2022-12-27T06:38:41.931Z,101733.63
2022-12-27T06:41:11.939Z,101738.91
2022-12-27T06:43:41.029Z,101736.41
2022-12-27T06:46:17.019Z,101730.28
2022-12-27T06:48:45.597Z,101733.63
2022-12-27T06:51:16.142Z,101725.63
2022-12-27T06:53:43.928Z,101728.19
2022-12-27T06:56:13.796Z,101733.06
2022-12-27T06:58:41.450Z,101741.75
2022-12-27T07:01:09.527Z,101740.44
2022-12-27T07:03:37.574Z,101741.38
2022-12-27T07:06:06.135Z,101749.94
2022-12-27T07:08:36.237Z,101747.22
2022-12-27T07:11:06.382Z,101747.13
2022-12-27T07:13:35.495Z,101748.91
2022-12-27T07:16:05.102Z,101755.69
2022-12-27T07:18:34.854Z,101755.13
2022-12-27T07:21:05.322Z,101761.06
2022-12-27T07:23:33.379Z,101760.97
2022-12-27T07:26:04.638Z,101772.84
2022-12-27T07:28:33.238Z,101769.56
2022-12-27T07:31:01.508Z,101771.88
2022-12-27T07:33:29.353Z,101771.81
2022-12-27T07:36:01.393Z,101770.56
2022-12-27T07:38:29.274Z,101780.00
2022-12-27T07:41:00.743Z,101783.19
2022-12-27T07:43:33.193Z,101784.50
2022-12-27T07:46:05.119Z,101790.34
2022-12-27T07:48:33.387Z,101795.34
2022-12-27T07:51:01.270Z,101805.03
2022-12-27T07:53:28.974Z,101812.19
2022-12-27T07:55:56.689Z,101809.13
2022-12-27T07:58:25.895Z,101823.63
2022-12-27T08:00:56.296Z,101819.75
2022-12-27T08:03:25.860Z,101830.03
2022-12-27T08:05:54.756Z,101837.09
2022-12-27T08:08:26.243Z,101831.44
2022-12-27T08:10:53.951Z,101830.41
2022-12-27T08:13:21.622Z,101828.25
2022-12-27T08:15:52.233Z,101820.88
2022-12-27T08:18:21.289Z,101820.88
2022-12-27T08:20:48.991Z,101832.25
2022-12-27T08:23:16.647Z,101833.66
2022-12-27T08:25:48.826Z,101829.78
2022-12-27T08:28:18.762Z,101833.50
2022-12-27T08:30:47.660Z,101831.53
2022-12-27T08:33:16.253Z,101834.81
2022-12-27T08:35:54.749Z,101819.16
2022-12-27T08:38:22.885Z,101827.88
2022-12-27T08:40:50.889Z,101830.50
2022-12-27T08:43:18.535Z,101838.22
2022-12-27T08:45:46.253Z,101839.09
2022-12-27T08:48:14.047Z,101844.63
2022-12-27T08:50:41.934Z,101849.81
2022-12-27T08:53:11.483Z,101852.00
2022-12-27T08:55:39.293Z,101858.41
2022-12-27T08:58:13.951Z,101859.91
2022-12-27T09:00:43.965Z,101863.50
2022-12-27T09:03:12.009Z,101866.88
2022-12-27T09:05:41.971Z,101858.78
2022-12-27T09:08:11.621Z,101858.13
2022-12-27T09:10:39.407Z,101861.13
2022-12-27T09:13:07.053Z,101865.09
2022-12-27T09:15:35.002Z,101874.44
2022-12-27T09:18:03.198Z,101875.94
2022-12-27T09:20:30.949Z,101878.75
2022-12-27T09:23:00.180Z,101882.41
2022-12-27T09:25:29.281Z,101876.09
2022-12-27T09:27:57.013Z,101877.59
2022-12-27T09:30:24.825Z,101877.00
2022-12-27T09:32:52.501Z,101882.38
2022-12-27T09:35:20.270Z,101880.56
2022-12-27T09:37:47.971Z,101888.50
2022-12-27T09:40:17.374Z,101893.88
2022-12-27T09:43:02.025Z,101894.50
2022-12-27T09:45:40.684Z,101896.28
2022-12-27T09:48:13.781Z,101898.16
2022-12-27T09:50:50.514Z,101890.78
2022-12-27T09:53:23.183Z,101891.09
2022-12-27T09:55:53.950Z,101884.34
2022-12-27T09:58:38.148Z,101878.41
2022-12-27T10:01:19.934Z,101882.50
2022-12-27T10:03:48.344Z,101870.84
2022-12-27T10:06:36.712Z,101865.81
2022-12-27T10:09:18.897Z,101874.91
2022-12-27T10:12:04.521Z,101872.31
2022-12-27T10:14:50.334Z,101862.88
2022-12-27T10:17:32.583Z,101862.22
2022-12-27T10:20:14.518Z,101866.78
2022-12-27T10:22:47.608Z,101860.41
2022-12-27T10:25:19.719Z,101870.69
2022-12-27T10:27:48.475Z,101865.84
2022-12-27T10:30:19.973Z,101871.63
2022-12-27T10:32:48.274Z,101869.13
2022-12-27T10:35:18.118Z,101871.38
2022-12-27T10:37:47.039Z,101866.50
2022-12-27T10:40:31.063Z,101867.50
2022-12-27T10:43:05.129Z,101858.25
2022-12-27T10:45:36.997Z,101860.47
2022-12-27T10:48:17.557Z,101855.91
2022-12-27T10:50:54.491Z,101852.88
2022-12-27T10:53:34.875Z,101845.00
2022-12-27T10:56:15.003Z,101847.13
2022-12-27T10:58:45.640Z,101850.63
2022-12-27T11:01:25.287Z,101843.09
2022-12-27T11:03:53.868Z,101847.88
2022-12-27T11:06:25.424Z,101853.09
2022-12-27T11:08:55.144Z,101862.31
2022-12-27T11:11:25.589Z,101861.31
2022-12-27T11:13:53.847Z,101858.84
2022-12-27T11:16:29.976Z,101850.84
2022-12-27T11:19:00.119Z,101848.72
2022-12-27T11:21:29.733Z,101850.41
2022-12-27T11:24:00.697Z,101844.78
2022-12-27T11:26:34.310Z,101852.69
2022-12-27T11:29:03.343Z,101843.56
2022-12-27T11:31:39.267Z,101854.78
2022-12-27T11:34:09.279Z,101858.50
2022-12-27T11:36:40.792Z,101851.75
2022-12-27T11:39:09.919Z,101854.13
2022-12-27T11:41:44.376Z,101855.53
2022-12-27T11:44:19.750Z,101861.72
2022-12-27T11:46:58.830Z,101860.03
2022-12-27T11:49:32.140Z,101853.88
2022-12-27T11:52:16.345Z,101857.00
2022-12-27T11:55:04.999Z,101848.19
2022-12-27T11:57:52.947Z,101842.06
2022-12-27T12:00:23.716Z,101846.41
2022-12-27T12:03:03.020Z,101839.78
2022-12-27T12:05:51.512Z,101838.69
2022-12-27T12:08:49.319Z,101832.06
2022-12-27T12:11:30.275Z,101833.00
2022-12-27T12:14:16.174Z,101841.81
2022-12-27T12:17:05.927Z,101852.44
2022-12-27T12:19:55.256Z,101846.53
2022-12-27T12:22:35.806Z,101843.13
2022-12-27T12:25:31.021Z,101843.63
2022-12-27T12:28:55.626Z,101847.59
2022-12-27T12:31:28.638Z,101846.59
2022-12-27T12:34:14.777Z,101836.94
2022-12-27T12:37:02.308Z,101831.53
2022-12-27T12:39:52.430Z,101831.16
2022-12-27T12:42:24.980Z,101833.38
2022-12-27T12:45:33.169Z,101822.84
2022-12-27T12:48:19.776Z,101825.84
2022-12-27T12:51:07.666Z,101819.44
2022-12-27T12:53:52.825Z,101817.28
2022-12-27T12:56:41.982Z,101817.63
2022-12-27T12:59:27.070Z,101811.94
2022-12-27T13:02:13.175Z,101811.56
2022-12-27T13:05:11.205Z,101809.72
2022-12-27T13:07:57.106Z,101803.69
2022-12-27T13:10:41.943Z,101798.78
2022-12-27T13:13:16.597Z,101803.13
2022-12-27T13:16:03.542Z,101787.44
2022-12-27T13:18:39.250Z,101794.38
2022-12-27T13:21:17.456Z,101799.56
2022-12-27T13:24:00.631Z,101790.91
2022-12-27T13:26:42.647Z,101780.75
2022-12-27T13:29:40.327Z,101781.22
2022-12-27T13:32:17.884Z,101784.31
2022-12-27T13:34:55.272Z,101785.03
2022-12-27T13:37:35.585Z,101782.63
2022-12-27T13:40:41.521Z,101779.22
2022-12-27T13:43:47.592Z,101782.09
2022-12-27T13:46:42.410Z,101787.63
2022-12-27T13:49:27.954Z,101794.00
2022-12-27T13:52:00.165Z,101795.06
2022-12-27T13:54:57.261Z,101784.16
2022-12-27T13:58:00.637Z,101782.72
2022-12-27T14:00:32.706Z,101777.13
2022-12-27T14:03:32.809Z,101779.88
2022-12-27T14:06:33.714Z,101783.69
2022-12-27T14:09:33.796Z,101780.53
2022-12-27T14:12:52.139Z,101780.84
2022-12-27T14:15:23.672Z,101776.63
2022-12-27T14:18:02.579Z,101777.47
2022-12-27T14:20:53.891Z,101770.19
2022-12-27T14:23:38.447Z,101771.69
2022-12-27T14:26:41.970Z,101764.91
2022-12-27T14:29:47.900Z,101768.09
2022-12-27T14:32:44.474Z,101767.88
2022-12-27T14:35:33.363Z,101764.50
2022-12-27T14:38:51.824Z,101764.47
2022-12-27T14:41:58.706Z,101765.13
2022-12-27T14:44:59.182Z,101756.66
2022-12-27T14:48:05.514Z,101763.13
2022-12-27T14:51:41.545Z,101763.31
2022-12-27T14:54:34.461Z,101753.69
2022-12-27T14:57:13.327Z,101757.28
2022-12-27T14:59:52.525Z,101754.75
2022-12-27T15:02:36.873Z,101751.34
2022-12-27T15:05:20.815Z,101746.53
2022-12-27T15:08:16.481Z,101753.06
2022-12-27T15:10:58.551Z,101749.47
2022-12-27T15:13:40.366Z,101754.56
2022-12-27T15:16:17.403Z,101749.47
2022-12-27T15:19:00.456Z,101758.03
2022-12-27T15:21:50.801Z,101769.16
2022-12-27T15:24:32.821Z,101782.59
2022-12-27T15:27:08.788Z,101785.03
2022-12-27T15:29:49.503Z,101778.78
2022-12-27T15:32:29.462Z,101776.88
2022-12-27T15:35:10.982Z,101787.16
2022-12-27T15:38:06.679Z,101774.00
2022-12-27T15:41:05.324Z,101776.16
2022-12-27T15:43:50.747Z,101779.75
2022-12-27T15:46:52.939Z,101763.88
2022-12-27T15:49:41.180Z,101762.38
2022-12-27T15:52:14.768Z,101759.41
2022-12-27T15:55:00.175Z,101766.19
2022-12-27T15:57:43.956Z,101766.16
2022-12-27T16:00:16.891Z,101757.47
2022-12-27T16:02:53.385Z,101755.34
2022-12-27T16:05:43.589Z,101758.00
2022-12-27T16:08:31.987Z,101755.03
2022-12-27T16:11:00.794Z,101753.22
2022-12-27T16:13:48.244Z,101748.16
2022-12-27T16:16:55.966Z,101746.28
2022-12-27T16:19:50.630Z,101735.47
2022-12-27T16:22:33.850Z,101740.16
2022-12-27T16:25:25.505Z,101733.59
2022-12-27T16:28:01.572Z,101732.22
2022-12-27T16:30:43.796Z,101724.69
2022-12-27T16:33:28.924Z,101720.72
2022-12-27T16:36:19.324Z,101721.78
2022-12-27T16:38:59.441Z,101715.47
2022-12-27T16:41:42.701Z,101714.41
2022-12-27T16:44:22.111Z,101718.38
2022-12-27T16:47:02.331Z,101721.00
2022-12-27T16:49:51.329Z,101716.75
2022-12-27T16:52:31.813Z,101709.38
2022-12-27T16:55:18.809Z,101712.06
2022-12-27T16:57:48.736Z,101714.72
2022-12-27T17:00:39.128Z,101716.50
2022-12-27T17:03:35.086Z,101716.09
2022-12-27T17:06:33.061Z,101718.81
2022-12-27T17:09:40.400Z,101730.84
2022-12-27T17:12:24.561Z,101725.38
2022-12-27T17:15:00.242Z,101720.44
2022-12-27T17:17:29.354Z,101724.53
2022-12-27T17:20:03.863Z,101730.13
2022-12-27T17:22:35.371Z,101722.56
2022-12-27T17:25:04.152Z,101731.50
2022-12-27T17:27:47.619Z,101725.28
2022-12-27T17:30:22.737Z,101721.22
2022-12-27T17:33:08.312Z,101716.41
2022-12-27T17:35:44.954Z,101713.97
2022-12-27T17:38:25.773Z,101715.41
2022-12-27T17:41:03.934Z,101711.72
2022-12-27T17:44:01.847Z,101709.03
2022-12-27T17:46:37.505Z,101701.91
2022-12-27T17:49:12.460Z,101700.94
2022-12-27T17:52:04.719Z,101690.38
2022-12-27T17:55:05.234Z,101684.91
2022-12-27T17:57:50.436Z,101679.81
2022-12-27T18:00:25.874Z,101673.91
2022-12-27T18:02:55.506Z,101674.69
2022-12-27T18:05:28.630Z,101684.56
2022-12-27T18:08:03.333Z,101679.44
2022-12-27T18:10:31.737Z,101676.16
2022-12-27T18:13:01.529Z,101674.84
2022-12-27T18:15:34.193Z,101669.13
2022-12-27T18:18:04.907Z,101674.59
2022-12-27T18:20:35.522Z,101671.81
2022-12-27T18:23:16.114Z,101670.72
2022-12-27T18:26:04.903Z,101669.06
2022-12-27T18:28:35.786Z,101671.78
2022-12-27T18:31:12.577Z,101669.16
2022-12-27T18:33:43.592Z,101666.69
2022-12-27T18:36:16.749Z,101660.16
2022-12-27T18:38:47.735Z,101659.53
2022-12-27T18:41:18.395Z,101654.13
2022-12-27T18:43:48.188Z,101654.03
2022-12-27T18:46:22.843Z,101652.81
2022-12-27T18:48:50.727Z,101639.69
2022-12-27T18:51:18.803Z,101639.94
2022-12-27T18:53:46.742Z,101629.75
2022-12-27T18:56:29.243Z,101645.56
2022-12-27T18:59:01.729Z,101640.44
2022-12-27T19:01:39.718Z,101640.84
2022-12-27T19:04:22.604Z,101641.53
2022-12-27T19:07:10.851Z,101633.69
2022-12-27T19:09:41.538Z,101622.78
2022-12-27T19:12:23.530Z,101620.09
2022-12-27T19:14:51.682Z,101631.06
2022-12-27T19:17:24.081Z,101618.00
2022-12-27T19:19:55.101Z,101615.91
2022-12-27T19:22:37.311Z,101618.63
2022-12-27T19:25:19.870Z,101617.06
2022-12-27T19:27:58.271Z,101617.81
2022-12-27T19:30:39.130Z,101616.69
2022-12-27T19:33:14.640Z,101608.72
2022-12-27T19:35:44.079Z,101612.41
2022-12-27T19:38:20.480Z,101607.03
2022-12-27T19:40:49.920Z,101604.75
2022-12-27T19:43:19.132Z,101603.56
2022-12-27T19:45:46.923Z,101604.59
2022-12-27T19:48:16.080Z,101599.00
2022-12-27T19:50:47.577Z,101589.78
2022-12-27T19:53:17.642Z,101591.31
2022-12-27T19:55:45.433Z,101578.69
2022-12-27T19:58:19.510Z,101576.81
2022-12-27T20:00:47.307Z,101569.66
2022-12-27T20:03:16.856Z,101570.00
2022-12-27T20:06:12.742Z,101562.00
2022-12-27T20:08:36.588Z,101556.47
2022-12-27T20:11:07.888Z,101566.63
2022-12-27T20:13:35.687Z,101554.00
2022-12-27T20:16:03.644Z,101548.00
2022-12-27T20:18:32.890Z,101562.59
2022-12-27T20:21:00.649Z,101568.06
2022-12-27T20:23:28.343Z,101560.84
2022-12-27T20:25:58.429Z,101557.06
2022-12-27T20:28:26.185Z,101549.91
2022-12-27T20:30:53.902Z,101554.13
2022-12-27T20:33:21.649Z,101548.22
2022-12-27T20:35:57.994Z,101538.63
2022-12-27T20:38:26.265Z,101540.97
2022-12-27T20:40:54.182Z,101542.00
2022-12-27T20:43:21.950Z,101541.25
2022-12-27T20:45:49.783Z,101546.16
2022-12-27T20:48:17.535Z,101538.03
2022-12-27T20:50:45.254Z,101537.66
2022-12-27T20:53:14.335Z,101531.09
2022-12-27T20:55:42.053Z,101532.78
2022-12-27T20:58:09.761Z,101521.66
2022-12-27T21:00:41.167Z,101522.44
2022-12-27T21:03:08.967Z,101527.03
2022-12-27T21:05:37.392Z,101534.56
2022-12-27T21:08:06.305Z,101543.13
2022-12-27T21:10:35.876Z,101540.22
2022-12-27T21:13:03.755Z,101545.97
2022-12-27T21:15:32.433Z,101546.34
2022-12-27T21:18:02.666Z,101548.69
2022-12-27T21:20:30.449Z,101542.00
2022-12-27T21:22:58.211Z,101531.63
2022-12-27T21:25:25.921Z,101529.31
2022-12-27T21:27:54.960Z,101521.78
2022-12-27T21:30:22.899Z,101522.16
2022-12-27T21:32:50.649Z,101523.56
2022-12-27T21:35:18.296Z,101523.25
2022-12-27T21:37:45.990Z,101529.03
2022-12-27T21:40:13.868Z,101524.09
2022-12-27T21:42:41.844Z,101519.38
2022-12-27T21:45:12.213Z,101517.25
2022-12-27T21:47:39.904Z,101515.66
2022-12-27T21:50:08.005Z,101516.44
2022-12-27T21:52:35.759Z,101509.16
2022-12-27T21:55:03.449Z,101503.06
2022-12-27T21:57:31.111Z,101498.69
2022-12-27T21:59:58.850Z,101502.44
2022-12-27T22:02:28.162Z,101505.44
2022-12-27T22:04:55.946Z,101492.28
2022-12-27T22:07:23.734Z,101486.25
2022-12-27T22:09:51.425Z,101487.66
2022-12-27T22:12:19.128Z,101483.41
2022-12-27T22:14:47.021Z,101481.91
2022-12-27T22:17:14.821Z,101479.94
2022-12-27T22:19:43.979Z,101487.19
2022-12-27T22:22:11.771Z,101486.25
2022-12-27T22:24:39.399Z,101483.78
2022-12-27T22:27:07.083Z,101475.06
2022-12-27T22:29:35.502Z,101479.94
2022-12-27T22:32:03.461Z,101478.44
2022-12-27T22:34:31.220Z,101476.72
2022-12-27T22:37:00.339Z,101481.91
2022-12-27T22:39:29.014Z,101480.59
2022-12-27T22:41:56.700Z,101473.81
2022-12-27T22:44:26.681Z,101475.59
2022-12-27T22:49:42.048Z,101468.84
2022-12-27T22:52:11.220Z,101473.09
2022-12-27T22:55:05.483Z,101462.94
2022-12-27T22:57:26.683Z,101462.44
2022-12-27T22:59:54.411Z,101456.09
2022-12-27T23:02:22.436Z,101456.28
2022-12-27T23:04:50.279Z,101456.09
2022-12-27T23:07:21.062Z,101455.75
2022-12-27T23:10:13.925Z,101452.56
2022-12-27T23:12:41.631Z,101451.38
2022-12-27T23:15:10.387Z,101450.91
2022-12-27T23:17:38.153Z,101449.69
2022-12-27T23:20:06.803Z,101443.94
2022-12-27T23:22:35.945Z,101439.41
2022-12-27T23:25:03.812Z,101430.28
2022-12-27T23:27:31.557Z,101435.84
2022-12-27T23:29:59.287Z,101436.22
2022-12-27T23:32:28.240Z,101432.03
2022-12-27T23:34:55.994Z,101442.56
2022-12-27T23:37:26.610Z,101426.28
2022-12-27T23:39:55.799Z,101421.03
2022-12-27T23:42:23.570Z,101419.72
2022-12-27T23:44:52.186Z,101415.00
2022-12-27T23:47:19.904Z,101416.53
2022-12-27T23:49:47.572Z,101417.94
2022-12-27T23:52:15.312Z,101423.38
2022-12-27T23:54:43.036Z,101426.28
2022-12-27T23:57:20.159Z,101420.88
2022-12-27T23:59:51.245Z,101418.63
